sensor_id;sensor_type;location;lat;lon;timestamp;pressure;altitude;pressure_sealevel;temperature;humidity
77823;BME280;67013;49.730;17.292;2024-03-07T00:00:37;98788.81;;;5.82;70.96
77823;BME280;67013;49.730;17.292;2024-03-07T00:03:07;98790.94;;;5.85;70.87
77823;BME280;67013;49.730;17.292;2024-03-07T00:05:37;98789.71;;;5.89;70.84
77823;BME280;67013;49.730;17.292;2024-03-07T00:08:08;98792.38;;;5.95;70.65
77823;BME280;67013;49.730;17.292;2024-03-07T00:10:38;98792.52;;;5.99;70.62
77823;BME280;67013;49.730;17.292;2024-03-07T00:13:07;98794.15;;;6.05;70.21
77823;BME280;67013;49.730;17.292;2024-03-07T00:15:37;98792.64;;;6.08;70.23
77823;BME280;67013;49.730;17.292;2024-03-07T00:18:08;98792.98;;;6.11;69.94
77823;BME280;67013;49.730;17.292;2024-03-07T00:20:38;98791.59;;;6.11;69.76
77823;BME280;67013;49.730;17.292;2024-03-07T00:23:08;98793.17;;;6.07;69.67
77823;BME280;67013;49.730;17.292;2024-03-07T00:25:37;98789.28;;;6.02;69.82
77823;BME280;67013;49.730;17.292;2024-03-07T00:28:07;98788.13;;;5.97;69.76
77823;BME280;67013;49.730;17.292;2024-03-07T00:30:36;98785.54;;;5.94;69.98
77823;BME280;67013;49.730;17.292;2024-03-07T00:33:09;98789.23;;;5.92;70.29
77823;BME280;67013;49.730;17.292;2024-03-07T00:35:38;98787.02;;;5.92;70.50
77823;BME280;67013;49.730;17.292;2024-03-07T00:38:08;98789.15;;;5.94;70.74
77823;BME280;67013;49.730;17.292;2024-03-07T00:40:38;98789.58;;;5.96;70.87
77823;BME280;67013;49.730;17.292;2024-03-07T00:43:07;98795.10;;;5.96;71.00
77823;BME280;67013;49.730;17.292;2024-03-07T00:45:37;98794.22;;;5.96;70.52
77823;BME280;67013;49.730;17.292;2024-03-07T00:48:07;98798.50;;;5.97;70.86
77823;BME280;67013;49.730;17.292;2024-03-07T00:50:37;98796.64;;;5.99;71.53
77823;BME280;67013;49.730;17.292;2024-03-07T00:53:07;98792.70;;;6.03;71.46
77823;BME280;67013;49.730;17.292;2024-03-07T00:55:36;98793.75;;;6.06;71.08
77823;BME280;67013;49.730;17.292;2024-03-07T00:58:06;98792.08;;;6.05;70.82
77823;BME280;67013;49.730;17.292;2024-03-07T01:00:36;98790.94;;;6.00;70.64
77823;BME280;67013;49.730;17.292;2024-03-07T01:03:05;98788.24;;;5.95;70.41
77823;BME280;67013;49.730;17.292;2024-03-07T01:05:35;98787.08;;;5.90;70.63
77823;BME280;67013;49.730;17.292;2024-03-07T01:08:06;98788.53;;;5.89;70.95
77823;BME280;67013;49.730;17.292;2024-03-07T01:10:35;98791.81;;;5.88;71.27
77823;BME280;67013;49.730;17.292;2024-03-07T01:13:05;98789.70;;;5.86;70.93
77823;BME280;67013;49.730;17.292;2024-03-07T01:15:37;98788.92;;;5.80;70.65
77823;BME280;67013;49.730;17.292;2024-03-07T01:18:07;98788.65;;;5.75;70.71
77823;BME280;67013;49.730;17.292;2024-03-07T01:20:36;98789.72;;;5.70;70.83
77823;BME280;67013;49.730;17.292;2024-03-07T01:23:06;98790.39;;;5.66;70.92
77823;BME280;67013;49.730;17.292;2024-03-07T01:25:36;98789.73;;;5.62;70.65
77823;BME280;67013;49.730;17.292;2024-03-07T01:28:06;98788.25;;;5.57;70.40
77823;BME280;67013;49.730;17.292;2024-03-07T01:30:35;98788.41;;;5.53;70.86
77823;BME280;67013;49.730;17.292;2024-03-07T01:33:05;98785.69;;;5.49;70.83
77823;BME280;67013;49.730;17.292;2024-03-07T01:35:35;98780.10;;;5.44;70.85
77823;BME280;67013;49.730;17.292;2024-03-07T01:38:05;98781.94;;;5.41;71.02
77823;BME280;67013;49.730;17.292;2024-03-07T01:40:36;98781.90;;;5.38;71.25
77823;BME280;67013;49.730;17.292;2024-03-07T01:43:06;98781.30;;;5.36;71.42
77823;BME280;67013;49.730;17.292;2024-03-07T01:45:40;98781.58;;;5.34;71.58
77823;BME280;67013;49.730;17.292;2024-03-07T01:48:10;98777.65;;;5.33;71.74
77823;BME280;67013;49.730;17.292;2024-03-07T01:50:44;98776.28;;;5.36;71.86
77823;BME280;67013;49.730;17.292;2024-03-07T01:53:14;98778.70;;;5.40;71.77
77823;BME280;67013;49.730;17.292;2024-03-07T01:55:45;98780.39;;;5.45;71.83
77823;BME280;67013;49.730;17.292;2024-03-07T01:58:16;98778.40;;;5.50;72.08
77823;BME280;67013;49.730;17.292;2024-03-07T02:00:48;98775.92;;;5.55;71.91
77823;BME280;67013;49.730;17.292;2024-03-07T02:03:18;98769.70;;;5.60;71.93
77823;BME280;67013;49.730;17.292;2024-03-07T02:05:47;98763.71;;;5.62;71.18
77823;BME280;67013;49.730;17.292;2024-03-07T02:08:17;98758.27;;;5.60;70.91
77823;BME280;67013;49.730;17.292;2024-03-07T02:10:47;98755.40;;;5.59;71.02
77823;BME280;67013;49.730;17.292;2024-03-07T02:13:17;98760.11;;;5.58;70.91
77823;BME280;67013;49.730;17.292;2024-03-07T02:15:47;98759.08;;;5.54;71.21
77823;BME280;67013;49.730;17.292;2024-03-07T02:18:16;98756.77;;;5.48;71.00
77823;BME280;67013;49.730;17.292;2024-03-07T02:20:46;98752.63;;;5.37;70.96
77823;BME280;67013;49.730;17.292;2024-03-07T02:23:16;98755.64;;;5.28;71.08
77823;BME280;67013;49.730;17.292;2024-03-07T02:25:45;98752.76;;;5.19;71.14
77823;BME280;67013;49.730;17.292;2024-03-07T02:28:15;98753.80;;;5.11;70.83
77823;BME280;67013;49.730;17.292;2024-03-07T02:30:44;98749.39;;;5.02;71.17
77823;BME280;67013;49.730;17.292;2024-03-07T02:33:14;98750.27;;;4.93;70.89
77823;BME280;67013;49.730;17.292;2024-03-07T02:35:43;98752.42;;;4.84;70.55
77823;BME280;67013;49.730;17.292;2024-03-07T02:38:13;98755.13;;;4.77;70.88
77823;BME280;67013;49.730;17.292;2024-03-07T02:40:42;98757.39;;;4.73;70.84
77823;BME280;67013;49.730;17.292;2024-03-07T02:43:12;98757.74;;;4.69;70.81
77823;BME280;67013;49.730;17.292;2024-03-07T02:45:41;98759.13;;;4.64;71.37
77823;BME280;67013;49.730;17.292;2024-03-07T02:48:11;98767.89;;;4.61;71.31
77823;BME280;67013;49.730;17.292;2024-03-07T02:50:40;98765.27;;;4.58;71.25
77823;BME280;67013;49.730;17.292;2024-03-07T02:53:10;98765.23;;;4.55;71.10
77823;BME280;67013;49.730;17.292;2024-03-07T02:55:39;98767.77;;;4.52;70.88
77823;BME280;67013;49.730;17.292;2024-03-07T02:58:09;98767.71;;;4.49;71.46
77823;BME280;67013;49.730;17.292;2024-03-07T03:00:39;98770.14;;;4.49;71.61
77823;BME280;67013;49.730;17.292;2024-03-07T03:03:08;98771.04;;;4.48;71.85
77823;BME280;67013;49.730;17.292;2024-03-07T03:05:37;98769.38;;;4.46;72.13
77823;BME280;67013;49.730;17.292;2024-03-07T03:08:07;98766.73;;;4.45;71.89
77823;BME280;67013;49.730;17.292;2024-03-07T03:10:38;98767.73;;;4.41;71.66
77823;BME280;67013;49.730;17.292;2024-03-07T03:13:07;98766.50;;;4.37;72.19
77823;BME280;67013;49.730;17.292;2024-03-07T03:15:37;98766.19;;;4.36;71.87
77823;BME280;67013;49.730;17.292;2024-03-07T03:18:07;98768.67;;;4.34;72.15
77823;BME280;67013;49.730;17.292;2024-03-07T03:20:37;98770.82;;;4.32;71.96
77823;BME280;67013;49.730;17.292;2024-03-07T03:23:07;98773.02;;;4.30;72.17
77823;BME280;67013;49.730;17.292;2024-03-07T03:25:41;98775.86;;;4.28;72.10
77823;BME280;67013;49.730;17.292;2024-03-07T03:28:11;98775.56;;;4.26;72.17
77823;BME280;67013;49.730;17.292;2024-03-07T03:30:41;98780.02;;;4.27;72.12
77823;BME280;67013;49.730;17.292;2024-03-07T03:33:11;98781.92;;;4.27;72.89
77823;BME280;67013;49.730;17.292;2024-03-07T03:35:42;98771.66;;;4.24;72.72
77823;BME280;67013;49.730;17.292;2024-03-07T03:38:12;98770.26;;;4.21;73.07
77823;BME280;67013;49.730;17.292;2024-03-07T03:40:41;98763.96;;;4.19;73.14
77823;BME280;67013;49.730;17.292;2024-03-07T03:43:11;98765.98;;;4.16;73.84
77823;BME280;67013;49.730;17.292;2024-03-07T03:45:40;98763.73;;;4.12;73.60
77823;BME280;67013;49.730;17.292;2024-03-07T03:48:10;98768.71;;;4.08;73.76
77823;BME280;67013;49.730;17.292;2024-03-07T03:50:39;98768.89;;;4.04;73.83
77823;BME280;67013;49.730;17.292;2024-03-07T03:53:09;98769.34;;;4.01;74.15
77823;BME280;67013;49.730;17.292;2024-03-07T03:55:38;98767.35;;;4.00;74.14
77823;BME280;67013;49.730;17.292;2024-03-07T03:58:08;98762.52;;;3.96;74.14
77823;BME280;67013;49.730;17.292;2024-03-07T04:00:37;98763.55;;;3.91;74.06
77823;BME280;67013;49.730;17.292;2024-03-07T04:03:07;98764.14;;;3.85;73.98
77823;BME280;67013;49.730;17.292;2024-03-07T04:05:36;98763.30;;;3.81;73.81
77823;BME280;67013;49.730;17.292;2024-03-07T04:08:06;98763.91;;;3.78;73.88
77823;BME280;67013;49.730;17.292;2024-03-07T04:10:37;98766.60;;;3.75;73.91
77823;BME280;67013;49.730;17.292;2024-03-07T04:13:07;98766.83;;;3.74;74.06
77823;BME280;67013;49.730;17.292;2024-03-07T04:15:37;98768.64;;;3.71;73.78
77823;BME280;67013;49.730;17.292;2024-03-07T04:18:07;98767.52;;;3.70;73.42
77823;BME280;67013;49.730;17.292;2024-03-07T04:20:36;98763.59;;;3.69;73.91
77823;BME280;67013;49.730;17.292;2024-03-07T04:23:07;98763.95;;;3.69;73.91
77823;BME280;67013;49.730;17.292;2024-03-07T04:25:36;98764.84;;;3.68;73.74
77823;BME280;67013;49.730;17.292;2024-03-07T04:28:06;98762.96;;;3.67;73.70
77823;BME280;67013;49.730;17.292;2024-03-07T04:30:36;98759.02;;;3.67;73.80
77823;BME280;67013;49.730;17.292;2024-03-07T04:33:05;98760.18;;;3.68;73.77
77823;BME280;67013;49.730;17.292;2024-03-07T04:35:35;98754.16;;;3.68;73.37
77823;BME280;67013;49.730;17.292;2024-03-07T04:38:05;98752.81;;;3.68;73.30
77823;BME280;67013;49.730;17.292;2024-03-07T04:40:39;98748.79;;;3.65;72.84
77823;BME280;67013;49.730;17.292;2024-03-07T04:43:08;98747.34;;;3.62;72.95
77823;BME280;67013;49.730;17.292;2024-03-07T04:45:39;98744.89;;;3.59;72.72
77823;BME280;67013;49.730;17.292;2024-03-07T04:48:09;98745.54;;;3.56;72.85
77823;BME280;67013;49.730;17.292;2024-03-07T04:50:38;98745.28;;;3.53;72.69
77823;BME280;67013;49.730;17.292;2024-03-07T04:53:08;98742.29;;;3.51;72.71
77823;BME280;67013;49.730;17.292;2024-03-07T04:55:37;98745.06;;;3.50;72.85
77823;BME280;67013;49.730;17.292;2024-03-07T04:58:07;98747.83;;;3.49;72.90
77823;BME280;67013;49.730;17.292;2024-03-07T05:00:37;98748.67;;;3.50;72.70
77823;BME280;67013;49.730;17.292;2024-03-07T05:03:06;98746.22;;;3.51;72.84
77823;BME280;67013;49.730;17.292;2024-03-07T05:05:36;98750.80;;;3.53;72.74
77823;BME280;67013;49.730;17.292;2024-03-07T05:08:06;98753.27;;;3.56;72.47
77823;BME280;67013;49.730;17.292;2024-03-07T05:10:35;98757.48;;;3.58;72.38
77823;BME280;67013;49.730;17.292;2024-03-07T05:13:05;98755.02;;;3.59;72.01
77823;BME280;67013;49.730;17.292;2024-03-07T05:15:34;98754.48;;;3.60;72.17
77823;BME280;67013;49.730;17.292;2024-03-07T05:18:04;98759.75;;;3.61;71.85
77823;BME280;67013;49.730;17.292;2024-03-07T05:20:34;98757.67;;;3.62;71.65
77823;BME280;67013;49.730;17.292;2024-03-07T05:23:04;98754.41;;;3.62;71.57
77823;BME280;67013;49.730;17.292;2024-03-07T05:25:34;98754.40;;;3.62;71.56
77823;BME280;67013;49.730;17.292;2024-03-07T05:28:04;98764.49;;;3.63;71.00
77823;BME280;67013;49.730;17.292;2024-03-07T05:30:34;98763.11;;;3.63;70.68
77823;BME280;67013;49.730;17.292;2024-03-07T05:33:03;98761.54;;;3.64;70.21
77823;BME280;67013;49.730;17.292;2024-03-07T05:35:33;98761.02;;;3.64;70.44
77823;BME280;67013;49.730;17.292;2024-03-07T05:38:02;98768.54;;;3.66;70.67
77823;BME280;67013;49.730;17.292;2024-03-07T05:40:33;98773.29;;;3.67;70.56
77823;BME280;67013;49.730;17.292;2024-03-07T05:43:02;98779.78;;;3.68;70.22
77823;BME280;67013;49.730;17.292;2024-03-07T05:45:32;98782.27;;;3.71;70.23
77823;BME280;67013;49.730;17.292;2024-03-07T05:48:15;98785.39;;;3.74;70.27
77823;BME280;67013;49.730;17.292;2024-03-07T05:50:45;98792.60;;;3.79;70.24
77823;BME280;67013;49.730;17.292;2024-03-07T05:53:15;98793.50;;;3.83;69.86
77823;BME280;67013;49.730;17.292;2024-03-07T05:55:46;98797.94;;;3.87;69.93
77823;BME280;67013;49.730;17.292;2024-03-07T05:58:15;98801.42;;;3.91;69.73
77823;BME280;67013;49.730;17.292;2024-03-07T06:00:46;98803.22;;;3.93;69.66
77823;BME280;67013;49.730;17.292;2024-03-07T06:03:18;98801.29;;;3.94;70.07
77823;BME280;67013;49.730;17.292;2024-03-07T06:05:48;98801.40;;;3.96;70.01
77823;BME280;67013;49.730;17.292;2024-03-07T06:08:19;98802.25;;;3.96;70.13
77823;BME280;67013;49.730;17.292;2024-03-07T06:10:49;98802.62;;;3.96;69.77
77823;BME280;67013;49.730;17.292;2024-03-07T06:13:19;98801.61;;;3.95;70.01
77823;BME280;67013;49.730;17.292;2024-03-07T06:15:49;98801.91;;;3.91;70.09
77823;BME280;67013;49.730;17.292;2024-03-07T06:18:18;98803.77;;;3.88;70.05
77823;BME280;67013;49.730;17.292;2024-03-07T06:20:47;98800.23;;;3.86;70.03
77823;BME280;67013;49.730;17.292;2024-03-07T06:23:17;98804.93;;;3.85;70.04
77823;BME280;67013;49.730;17.292;2024-03-07T06:25:46;98804.23;;;3.85;70.16
77823;BME280;67013;49.730;17.292;2024-03-07T06:28:19;98800.89;;;3.86;70.36
77823;BME280;67013;49.730;17.292;2024-03-07T06:30:48;98803.19;;;3.85;70.33
77823;BME280;67013;49.730;17.292;2024-03-07T06:33:18;98794.73;;;3.82;69.96
77823;BME280;67013;49.730;17.292;2024-03-07T06:35:48;98790.38;;;3.79;70.43
77823;BME280;67013;49.730;17.292;2024-03-07T06:38:19;98779.17;;;3.79;70.76
77823;BME280;67013;49.730;17.292;2024-03-07T06:40:49;98764.67;;;3.80;70.28
77823;BME280;67013;49.730;17.292;2024-03-07T06:43:20;98766.25;;;3.80;70.12
77823;BME280;67013;49.730;17.292;2024-03-07T06:45:49;98764.20;;;3.79;70.06
77823;BME280;67013;49.730;17.292;2024-03-07T06:48:20;98769.06;;;3.78;70.02
77823;BME280;67013;49.730;17.292;2024-03-07T06:50:49;98765.92;;;3.79;70.07
77823;BME280;67013;49.730;17.292;2024-03-07T06:53:20;98750.84;;;3.83;69.90
77823;BME280;67013;49.730;17.292;2024-03-07T06:55:54;98744.77;;;3.96;69.29
77823;BME280;67013;49.730;17.292;2024-03-07T06:58:23;98727.20;;;4.17;68.32
77823;BME280;67013;49.730;17.292;2024-03-07T07:00:54;98705.31;;;4.39;67.89
77823;BME280;67013;49.730;17.292;2024-03-07T07:03:23;98685.95;;;4.60;67.44
77823;BME280;67013;49.730;17.292;2024-03-07T07:05:53;98685.57;;;4.84;66.97
77823;BME280;67013;49.730;17.292;2024-03-07T07:08:22;98684.65;;;5.08;66.40
77823;BME280;67013;49.730;17.292;2024-03-07T07:10:52;98688.81;;;5.30;65.08
77823;BME280;67013;49.730;17.292;2024-03-07T07:13:22;98678.62;;;5.48;64.06
77823;BME280;67013;49.730;17.292;2024-03-07T07:15:52;98679.93;;;5.60;63.19
77823;BME280;67013;49.730;17.292;2024-03-07T07:18:22;98688.06;;;5.67;62.27
77823;BME280;67013;49.730;17.292;2024-03-07T07:20:51;98692.34;;;5.72;61.95
77823;BME280;67013;49.730;17.292;2024-03-07T07:23:21;98690.48;;;5.78;61.71
77823;BME280;67013;49.730;17.292;2024-03-07T07:25:51;98694.85;;;5.88;61.65
77823;BME280;67013;49.730;17.292;2024-03-07T07:28:20;98700.41;;;6.01;60.92
77823;BME280;67013;49.730;17.292;2024-03-07T07:30:50;98713.67;;;6.12;60.18
77823;BME280;67013;49.730;17.292;2024-03-07T07:33:19;98722.39;;;6.21;60.38
77823;BME280;67013;49.730;17.292;2024-03-07T07:35:49;98720.55;;;6.34;59.80
77823;BME280;67013;49.730;17.292;2024-03-07T07:38:18;98730.70;;;6.52;59.68
77823;BME280;67013;49.730;17.292;2024-03-07T07:40:47;98736.75;;;6.72;59.29
77823;BME280;67013;49.730;17.292;2024-03-07T07:43:18;98742.74;;;6.92;58.72
77823;BME280;67013;49.730;17.292;2024-03-07T07:45:47;98752.70;;;7.07;57.88
77823;BME280;67013;49.730;17.292;2024-03-07T07:48:17;98757.30;;;7.15;57.27
77823;BME280;67013;49.730;17.292;2024-03-07T07:50:48;98765.70;;;7.26;57.23
77823;BME280;67013;49.730;17.292;2024-03-07T07:53:18;98765.68;;;7.42;57.26
77823;BME280;67013;49.730;17.292;2024-03-07T07:55:48;98760.75;;;7.57;55.91
77823;BME280;67013;49.730;17.292;2024-03-07T07:58:17;98758.19;;;7.62;55.48
77823;BME280;67013;49.730;17.292;2024-03-07T08:00:47;98761.36;;;7.74;55.91
77823;BME280;67013;49.730;17.292;2024-03-07T08:03:16;98765.14;;;7.93;55.57
77823;BME280;67013;49.730;17.292;2024-03-07T08:05:47;98763.73;;;8.18;55.74
77823;BME280;67013;49.730;17.292;2024-03-07T08:08:17;98757.10;;;8.49;55.48
77823;BME280;67013;49.730;17.292;2024-03-07T08:10:46;98759.31;;;8.79;54.51
77823;BME280;67013;49.730;17.292;2024-03-07T08:13:16;98754.13;;;9.04;54.45
77823;BME280;67013;49.730;17.292;2024-03-07T08:15:46;98749.02;;;9.31;53.60
77823;BME280;67013;49.730;17.292;2024-03-07T08:18:16;98746.61;;;9.53;53.32
77823;BME280;67013;49.730;17.292;2024-03-07T08:20:45;98749.71;;;9.78;52.48
77823;BME280;67013;49.730;17.292;2024-03-07T08:23:15;98760.08;;;9.89;52.20
77823;BME280;67013;49.730;17.292;2024-03-07T08:25:44;98759.13;;;10.07;51.78
77823;BME280;67013;49.730;17.292;2024-03-07T08:28:13;98768.86;;;10.23;50.47
77823;BME280;67013;49.730;17.292;2024-03-07T08:30:43;98774.98;;;10.39;50.15
77823;BME280;67013;49.730;17.292;2024-03-07T08:33:13;98779.25;;;10.58;50.08
77823;BME280;67013;49.730;17.292;2024-03-07T08:35:43;98787.34;;;10.80;49.52
77823;BME280;67013;49.730;17.292;2024-03-07T08:38:13;98791.55;;;11.00;49.16
77823;BME280;67013;49.730;17.292;2024-03-07T08:40:43;98799.77;;;11.27;49.21
77823;BME280;67013;49.730;17.292;2024-03-07T08:43:13;98796.29;;;11.62;49.03
77823;BME280;67013;49.730;17.292;2024-03-07T08:45:43;98792.95;;;11.80;47.93
77823;BME280;67013;49.730;17.292;2024-03-07T08:48:13;98786.66;;;11.78;46.90
77823;BME280;67013;49.730;17.292;2024-03-07T08:50:42;98786.91;;;11.47;46.44
77823;BME280;67013;49.730;17.292;2024-03-07T08:53:12;98791.16;;;11.23;46.98
77823;BME280;67013;49.730;17.292;2024-03-07T08:55:41;98795.66;;;11.03;47.30
77823;BME280;67013;49.730;17.292;2024-03-07T08:58:11;98793.14;;;10.84;47.14
77823;BME280;67013;49.730;17.292;2024-03-07T09:00:40;98796.89;;;10.52;46.70
77823;BME280;67013;49.730;17.292;2024-03-07T09:03:09;98798.20;;;10.07;47.07
77823;BME280;67013;49.730;17.292;2024-03-07T09:05:39;98796.76;;;9.64;47.49
77823;BME280;67013;49.730;17.292;2024-03-07T09:08:10;98797.68;;;9.38;48.79
77823;BME280;67013;49.730;17.292;2024-03-07T09:10:39;98801.80;;;9.36;49.52
77823;BME280;67013;49.730;17.292;2024-03-07T09:13:10;98799.61;;;9.38;49.36
77823;BME280;67013;49.730;17.292;2024-03-07T09:15:40;98793.95;;;9.29;49.23
77823;BME280;67013;49.730;17.292;2024-03-07T09:18:10;98811.38;;;9.10;49.35
77823;BME280;67013;49.730;17.292;2024-03-07T09:20:40;98813.83;;;8.89;49.55
77823;BME280;67013;49.730;17.292;2024-03-07T09:23:09;98808.20;;;8.62;49.85
77823;BME280;67013;49.730;17.292;2024-03-07T09:25:40;98828.42;;;8.44;50.51
77823;BME280;67013;49.730;17.292;2024-03-07T09:28:11;98831.84;;;8.23;50.59
77823;BME280;67013;49.730;17.292;2024-03-07T09:30:40;98827.64;;;8.09;51.38
77823;BME280;67013;49.730;17.292;2024-03-07T09:33:09;98826.39;;;8.03;51.61
77823;BME280;67013;49.730;17.292;2024-03-07T09:35:39;98830.05;;;8.00;52.11
77823;BME280;67013;49.730;17.292;2024-03-07T09:38:08;98833.48;;;8.00;52.18
77823;BME280;67013;49.730;17.292;2024-03-07T09:40:39;98832.82;;;8.00;52.22
77823;BME280;67013;49.730;17.292;2024-03-07T09:43:10;98834.69;;;7.91;52.37
77823;BME280;67013;49.730;17.292;2024-03-07T09:45:42;98838.24;;;7.80;52.90
77823;BME280;67013;49.730;17.292;2024-03-07T09:48:12;98841.85;;;7.74;53.19
77823;BME280;67013;49.730;17.292;2024-03-07T09:50:44;98851.05;;;7.67;53.33
77823;BME280;67013;49.730;17.292;2024-03-07T09:53:16;98854.93;;;7.59;53.58
77823;BME280;67013;49.730;17.292;2024-03-07T09:55:46;98861.95;;;7.44;53.59
77823;BME280;67013;49.730;17.292;2024-03-07T09:58:17;98871.34;;;7.27;53.88
77823;BME280;67013;49.730;17.292;2024-03-07T10:00:49;98869.12;;;7.06;54.02
77823;BME280;67013;49.730;17.292;2024-03-07T10:03:22;98869.61;;;6.86;54.81
77823;BME280;67013;49.730;17.292;2024-03-07T10:05:56;98868.63;;;6.71;55.29
77823;BME280;67013;49.730;17.292;2024-03-07T10:08:27;98870.16;;;6.61;55.81
77823;BME280;67013;49.730;17.292;2024-03-07T10:10:57;98872.77;;;6.57;56.22
77823;BME280;67013;49.730;17.292;2024-03-07T10:13:28;98872.81;;;6.60;56.40
77823;BME280;67013;49.730;17.292;2024-03-07T10:15:59;98877.95;;;6.65;56.56
77823;BME280;67013;49.730;17.292;2024-03-07T10:18:29;98873.77;;;6.58;56.12
77823;BME280;67013;49.730;17.292;2024-03-07T10:20:59;98864.77;;;6.55;56.69
77823;BME280;67013;49.730;17.292;2024-03-07T10:23:29;98871.49;;;6.59;56.87
77823;BME280;67013;49.730;17.292;2024-03-07T10:25:58;98870.40;;;6.67;57.14
77823;BME280;67013;49.730;17.292;2024-03-07T10:28:29;98862.73;;;6.75;57.14
77823;BME280;67013;49.730;17.292;2024-03-07T10:30:59;98866.23;;;6.78;56.74
77823;BME280;67013;49.730;17.292;2024-03-07T10:33:31;98867.16;;;6.73;56.66
77823;BME280;67013;49.730;17.292;2024-03-07T10:36:02;98866.59;;;6.60;56.63
77823;BME280;67013;49.730;17.292;2024-03-07T10:38:32;98873.80;;;6.44;56.99
77823;BME280;67013;49.730;17.292;2024-03-07T10:41:03;98870.20;;;6.35;57.44
77823;BME280;67013;49.730;17.292;2024-03-07T10:43:36;98872.05;;;6.22;57.42
77823;BME280;67013;49.730;17.292;2024-03-07T10:46:11;98854.91;;;6.16;58.09
77823;BME280;67013;49.730;17.292;2024-03-07T10:48:41;98860.36;;;6.14;58.45
77823;BME280;67013;49.730;17.292;2024-03-07T10:51:21;98858.72;;;6.15;58.48
77823;BME280;67013;49.730;17.292;2024-03-07T10:53:58;98848.39;;;6.15;58.56
77823;BME280;67013;49.730;17.292;2024-03-07T10:56:38;98852.61;;;6.10;58.59
77823;BME280;67013;49.730;17.292;2024-03-07T10:59:17;98843.68;;;6.12;58.63
77823;BME280;67013;49.730;17.292;2024-03-07T11:01:58;98839.31;;;6.13;59.14
77823;BME280;67013;49.730;17.292;2024-03-07T11:04:29;98836.71;;;6.14;58.93
77823;BME280;67013;49.730;17.292;2024-03-07T11:06:59;98832.11;;;6.12;58.85
77823;BME280;67013;49.730;17.292;2024-03-07T11:09:29;98823.87;;;6.08;59.25
77823;BME280;67013;49.730;17.292;2024-03-07T11:12:01;98817.08;;;6.06;58.86
77823;BME280;67013;49.730;17.292;2024-03-07T11:14:33;98813.02;;;5.96;59.37
77823;BME280;67013;49.730;17.292;2024-03-07T11:17:05;98807.34;;;5.96;59.68
77823;BME280;67013;49.730;17.292;2024-03-07T11:19:35;98807.98;;;5.97;59.59
77823;BME280;67013;49.730;17.292;2024-03-07T11:22:06;98807.80;;;5.90;59.69
77823;BME280;67013;49.730;17.292;2024-03-07T11:24:43;98797.04;;;5.76;59.95
77823;BME280;67013;49.730;17.292;2024-03-07T11:27:13;98785.73;;;5.67;60.47
77823;BME280;67013;49.730;17.292;2024-03-07T11:29:48;98780.98;;;5.61;61.01
77823;BME280;67013;49.730;17.292;2024-03-07T11:32:21;98770.60;;;5.59;61.10
77823;BME280;67013;49.730;17.292;2024-03-07T11:34:54;98761.58;;;5.52;61.08
77823;BME280;67013;49.730;17.292;2024-03-07T11:37:39;98763.62;;;5.49;61.27
77823;BME280;67013;49.730;17.292;2024-03-07T11:40:19;98758.64;;;5.38;61.64
77823;BME280;67013;49.730;17.292;2024-03-07T11:43:05;98760.53;;;5.30;62.01
77823;BME280;67013;49.730;17.292;2024-03-07T11:45:35;98750.46;;;5.24;62.02
77823;BME280;67013;49.730;17.292;2024-03-07T11:48:08;98736.03;;;5.19;62.18
77823;BME280;67013;49.730;17.292;2024-03-07T11:50:39;98729.52;;;5.15;62.60
77823;BME280;67013;49.730;17.292;2024-03-07T11:53:10;98728.17;;;5.14;62.68
77823;BME280;67013;49.730;17.292;2024-03-07T11:55:40;98732.48;;;5.10;62.70
77823;BME280;67013;49.730;17.292;2024-03-07T11:58:15;98725.48;;;4.97;63.06
77823;BME280;67013;49.730;17.292;2024-03-07T12:00:45;98724.38;;;4.87;63.33
77823;BME280;67013;49.730;17.292;2024-03-07T12:03:17;98736.97;;;4.79;63.46
77823;BME280;67013;49.730;17.292;2024-03-07T12:05:49;98733.70;;;4.71;63.61
77823;BME280;67013;49.730;17.292;2024-03-07T12:08:20;98717.80;;;4.64;64.11
77823;BME280;67013;49.730;17.292;2024-03-07T12:10:50;98724.95;;;4.58;64.18
77823;BME280;67013;49.730;17.292;2024-03-07T12:13:24;98717.35;;;4.51;64.53
77823;BME280;67013;49.730;17.292;2024-03-07T12:15:54;98717.70;;;4.43;64.81
77823;BME280;67013;49.730;17.292;2024-03-07T12:18:27;98717.20;;;4.39;64.93
77823;BME280;67013;49.730;17.292;2024-03-07T12:20:57;98714.48;;;4.42;65.16
77823;BME280;67013;49.730;17.292;2024-03-07T12:23:28;98718.04;;;4.46;64.81
77823;BME280;67013;49.730;17.292;2024-03-07T12:26:02;98702.66;;;4.48;64.57
77823;BME280;67013;49.730;17.292;2024-03-07T12:28:32;98712.83;;;4.44;64.53
77823;BME280;67013;49.730;17.292;2024-03-07T12:31:02;98720.48;;;4.38;64.55
77823;BME280;67013;49.730;17.292;2024-03-07T12:33:33;98720.59;;;4.32;64.77
77823;BME280;67013;49.730;17.292;2024-03-07T12:36:08;98713.59;;;4.26;64.99
77823;BME280;67013;49.730;17.292;2024-03-07T12:38:39;98717.48;;;4.23;65.24
77823;BME280;67013;49.730;17.292;2024-03-07T12:41:09;98730.58;;;4.19;65.38
77823;BME280;67013;49.730;17.292;2024-03-07T12:43:43;98728.73;;;4.14;65.40
77823;BME280;67013;49.730;17.292;2024-03-07T12:46:13;98738.60;;;4.13;65.57
77823;BME280;67013;49.730;17.292;2024-03-07T12:48:44;98751.64;;;4.13;65.73
77823;BME280;67013;49.730;17.292;2024-03-07T12:51:13;98752.19;;;4.25;65.80
77823;BME280;67013;49.730;17.292;2024-03-07T12:53:45;98751.67;;;4.38;65.49
77823;BME280;67013;49.730;17.292;2024-03-07T12:56:14;98758.37;;;4.46;65.34
77823;BME280;67013;49.730;17.292;2024-03-07T12:58:47;98756.80;;;4.59;65.03
77823;BME280;67013;49.730;17.292;2024-03-07T13:01:17;98758.45;;;4.68;64.55
77823;BME280;67013;49.730;17.292;2024-03-07T13:03:47;98755.91;;;4.72;64.39
77823;BME280;67013;49.730;17.292;2024-03-07T13:06:17;98746.45;;;4.75;64.20
77823;BME280;67013;49.730;17.292;2024-03-07T13:08:53;98749.96;;;4.81;63.74
77823;BME280;67013;49.730;17.292;2024-03-07T13:11:24;98747.88;;;4.86;63.78
77823;BME280;67013;49.730;17.292;2024-03-07T13:13:58;98756.54;;;4.85;63.60
77823;BME280;67013;49.730;17.292;2024-03-07T13:16:28;98763.11;;;4.84;63.86